Time;durP1;ratioP1;P1;durP2;ratioP2;P2;SDS_P1;SDS_P2;PMS_P1;PMS_P2;Temp;Humidity;BMP_temperature;BMP_pressure;BME280_temperature;BME280_humidity;BME280_pressure;Samples;Min_cycle;Max_cycle;Signal;HPM_P1;HPM_P2
2023/09/25 00:00:49;;;;;;;6.65;3.10;;;14.80;78.60;;;;;;5033630;28;20040;-81
2023/09/25 00:03:15;;;;;;;6.30;2.88;;;14.80;78.70;;;;;;5021028;28;20699;-83
2023/09/25 00:05:41;;;;;;;6.85;3.25;;;14.80;78.70;;;;;;5020100;28;20093;-82
2023/09/25 00:08:07;;;;;;;6.97;2.97;;;14.80;79.00;;;;;;5020824;28;20452;-82
2023/09/25 00:10:33;;;;;;;7.32;3.42;;;14.80;79.00;;;;;;5020281;28;20092;-82
2023/09/25 00:13:00;;;;;;;7.40;3.08;;;14.70;79.10;;;;;;5019733;28;20556;-81
2023/09/25 00:15:25;;;;;;;7.18;3.05;;;14.70;79.10;;;;;;5018185;28;20152;-80
2023/09/25 00:17:52;;;;;;;8.55;3.10;;;14.70;79.00;;;;;;5015333;28;20108;-83
2023/09/25 00:20:20;;;;;;;5.85;3.08;;;14.70;79.10;;;;;;5014220;28;20485;-80
2023/09/25 00:22:46;;;;;;;6.90;2.72;;;14.70;79.30;;;;;;5013939;28;20025;-85
2023/09/25 00:25:12;;;;;;;6.55;2.97;;;14.70;79.40;;;;;;5010299;28;20483;-84
2023/09/25 00:27:38;;;;;;;8.85;3.80;;;14.60;79.50;;;;;;5016241;28;20025;-82
2023/09/25 00:30:08;;;;;;;6.05;2.90;;;14.60;79.50;;;;;;5013040;28;20034;-84
2023/09/25 00:32:35;;;;;;;8.13;3.40;;;14.60;79.60;;;;;;5017541;28;20084;-84
2023/09/25 00:35:05;;;;;;;6.55;3.25;;;14.60;79.70;;;;;;5015792;28;20080;-83
2023/09/25 00:37:31;;;;;;;6.05;2.90;;;14.60;79.80;;;;;;5018500;28;20053;-82
2023/09/25 00:39:58;;;;;;;6.72;2.80;;;14.60;79.80;;;;;;5019475;28;20450;-82
2023/09/25 00:42:26;;;;;;;7.78;3.20;;;14.60;79.90;;;;;;5014892;28;20034;-79
2023/09/25 00:44:52;;;;;;;8.85;3.15;;;14.60;80.00;;;;;;5014348;28;20056;-83
2023/09/25 00:47:18;;;;;;;7.85;3.53;;;14.60;80.00;;;;;;5011917;28;20025;-82
2023/09/25 00:49:44;;;;;;;5.65;2.70;;;14.60;79.90;;;;;;5013021;28;20036;-82
2023/09/25 00:52:11;;;;;;;9.50;3.13;;;14.60;79.90;;;;;;5022605;28;20507;-84
2023/09/25 00:54:37;;;;;;;5.97;2.92;;;14.50;80.10;;;;;;5018691;28;20048;-83
2023/09/25 00:57:03;;;;;;;7.43;3.33;;;14.50;80.10;;;;;;5023704;28;20069;-83
2023/09/25 00:59:29;;;;;;;6.63;3.05;;;14.50;80.20;;;;;;5017689;28;20517;-84
2023/09/25 01:01:55;;;;;;;6.85;3.03;;;14.50;80.30;;;;;;5017260;28;20052;-84
2023/09/25 01:04:24;;;;;;;8.00;3.10;;;14.50;80.10;;;;;;5030631;28;20068;-80
2023/09/25 01:06:49;;;;;;;7.93;3.30;;;14.50;80.10;;;;;;5030792;28;20018;-81
2023/09/25 01:09:15;;;;;;;6.15;2.70;;;14.40;80.30;;;;;;5034929;28;20170;-82
2023/09/25 01:11:41;;;;;;;6.63;2.97;;;14.40;80.40;;;;;;5035061;28;20380;-81
2023/09/25 01:14:07;;;;;;;7.15;2.92;;;14.40;80.50;;;;;;5022614;28;20113;-82
2023/09/25 01:16:32;;;;;;;8.13;3.28;;;14.40;80.50;;;;;;5021101;28;20562;-80
2023/09/25 01:18:58;;;;;;;7.40;3.10;;;14.40;80.60;;;;;;5017311;28;20068;-82
2023/09/25 01:21:25;;;;;;;8.10;3.20;;;14.40;80.50;;;;;;5017282;28;20047;-83
2023/09/25 01:23:51;;;;;;;9.18;3.10;;;14.40;80.70;;;;;;5021834;28;20042;-80
2023/09/25 01:26:17;;;;;;;6.18;3.05;;;14.30;80.70;;;;;;5016675;28;20380;-82
2023/09/25 01:28:43;;;;;;;7.45;2.72;;;14.30;80.90;;;;;;5032894;28;20047;-83
2023/09/25 01:31:08;;;;;;;7.95;3.35;;;14.30;81.00;;;;;;5017149;28;20049;-83
2023/09/25 01:33:34;;;;;;;9.07;3.50;;;14.30;80.80;;;;;;5023680;28;20033;-82
2023/09/25 01:36:00;;;;;;;7.03;3.35;;;14.30;81.00;;;;;;5034780;28;20047;-81
2023/09/25 01:38:27;;;;;;;5.65;3.47;;;14.30;80.80;;;;;;5033088;28;20044;-83
2023/09/25 01:40:52;;;;;;;6.43;2.97;;;14.30;80.80;;;;;;5030815;28;20025;-84
2023/09/25 01:43:18;;;;;;;7.00;3.15;;;14.30;80.90;;;;;;5030893;28;20044;-80
2023/09/25 01:45:44;;;;;;;7.68;2.97;;;14.30;80.70;;;;;;5038542;28;20048;-82
2023/09/25 01:48:10;;;;;;;6.78;3.15;;;14.30;80.90;;;;;;5032682;28;20048;-84
2023/09/25 01:50:36;;;;;;;6.70;2.65;;;14.30;81.00;;;;;;5033427;28;20045;-84
2023/09/25 01:53:05;;;;;;;6.82;3.20;;;14.30;80.90;;;;;;5029005;28;20037;-84
2023/09/25 01:55:35;;;;;;;7.85;2.83;;;14.30;80.80;;;;;;5035799;28;20056;-84
2023/09/25 01:58:02;;;;;;;6.65;3.25;;;14.30;80.90;;;;;;5036647;28;20084;-80
2023/09/25 02:00:28;;;;;;;6.65;3.22;;;14.30;80.70;;;;;;5026719;28;21047;-82
2023/09/25 02:02:54;;;;;;;7.78;3.05;;;14.30;80.70;;;;;;5035868;28;20106;-83
2023/09/25 02:05:19;;;;;;;7.88;3.30;;;14.30;80.60;;;;;;5040543;28;20032;-82
2023/09/25 02:07:45;;;;;;;6.38;3.10;;;14.30;80.70;;;;;;5034359;28;20022;-82
2023/09/25 02:10:11;;;;;;;10.02;3.28;;;14.30;80.60;;;;;;5039113;28;20036;-80
2023/09/25 02:12:37;;;;;;;6.35;3.20;;;14.30;80.50;;;;;;5036852;28;20087;-81
2023/09/25 02:15:05;;;;;;;8.02;3.47;;;14.30;80.60;;;;;;5033408;28;20090;-82
2023/09/25 02:17:32;;;;;;;7.10;3.22;;;14.30;80.70;;;;;;5045526;28;20043;-78
2023/09/25 02:20:19;;;;;;;6.38;3.13;;;14.30;80.60;;;;;;5028495;28;20498;-81
2023/09/25 02:22:45;;;;;;;6.78;2.65;;;14.30;80.70;;;;;;5036775;28;20394;-82
2023/09/25 02:25:11;;;;;;;6.95;3.30;;;14.30;80.70;;;;;;5036145;28;20077;-80
2023/09/25 02:27:39;;;;;;;5.22;2.85;;;14.30;80.70;;;;;;5034103;28;20052;-83
2023/09/25 02:30:10;;;;;;;8.13;3.22;;;14.20;80.80;;;;;;5019661;28;20493;-80
2023/09/25 02:32:36;;;;;;;6.88;3.05;;;14.20;80.90;;;;;;5026418;28;20026;-81
2023/09/25 02:35:03;;;;;;;9.75;3.53;;;14.20;80.90;;;;;;5023464;28;20033;-81
2023/09/25 02:37:31;;;;;;;12.50;3.33;;;14.20;81.00;;;;;;5032498;28;20018;-81
2023/09/25 02:39:57;;;;;;;8.50;3.13;;;14.20;80.80;;;;;;5034361;28;20033;-81
2023/09/25 02:42:23;;;;;;;7.65;3.22;;;14.20;80.80;;;;;;5037990;28;20472;-82
2023/09/25 02:44:48;;;;;;;8.05;3.20;;;14.20;80.90;;;;;;5035125;28;20403;-78
2023/09/25 02:47:14;;;;;;;6.55;3.38;;;14.20;81.00;;;;;;5032347;28;20621;-81
2023/09/25 02:49:40;;;;;;;6.05;3.03;;;14.20;81.00;;;;;;5033535;28;20370;-82
2023/09/25 02:52:05;;;;;;;8.73;3.95;;;14.20;81.10;;;;;;5038948;28;20376;-82
2023/09/25 02:54:31;;;;;;;6.72;3.10;;;14.10;81.20;;;;;;5037695;28;20464;-81
2023/09/25 02:56:57;;;;;;;7.65;2.97;;;14.10;81.20;;;;;;5037866;28;20056;-78
2023/09/25 02:59:23;;;;;;;6.90;2.85;;;14.10;81.20;;;;;;5033920;28;20689;-81
2023/09/25 03:01:48;;;;;;;10.63;3.15;;;14.10;81.10;;;;;;5029013;28;20044;-81
2023/09/25 03:04:14;;;;;;;7.97;3.25;;;14.10;81.20;;;;;;5034326;28;20411;-79
2023/09/25 03:06:39;;;;;;;8.27;3.03;;;14.10;81.10;;;;;;5019519;28;20300;-82
2023/09/25 03:09:06;;;;;;;7.25;3.17;;;14.10;81.30;;;;;;5019718;28;20472;-79
2023/09/25 03:11:32;;;;;;;6.47;2.78;;;14.10;81.20;;;;;;5015411;28;20053;-80
2023/09/25 03:13:58;;;;;;;6.90;3.25;;;14.10;81.10;;;;;;5019383;28;20038;-82
2023/09/25 03:16:23;;;;;;;6.85;2.92;;;14.10;81.10;;;;;;5019880;28;20437;-80
2023/09/25 03:18:50;;;;;;;6.93;3.15;;;14.10;81.10;;;;;;5020664;28;20723;-83
2023/09/25 03:21:17;;;;;;;6.15;3.10;;;14.10;81.10;;;;;;5020553;28;20132;-83
2023/09/25 03:23:43;;;;;;;6.40;2.92;;;14.10;80.90;;;;;;5018758;28;20029;-77
2023/09/25 03:26:19;;;;;;;7.30;2.92;;;14.10;81.10;;;;;;5021306;28;20588;-81
2023/09/25 03:28:46;;;;;;;6.30;2.72;;;14.10;80.90;;;;;;5019399;28;20032;-81
2023/09/25 03:31:12;;;;;;;6.72;2.72;;;14.10;81.00;;;;;;5019324;28;20169;-82
2023/09/25 03:33:39;;;;;;;7.78;3.03;;;14.10;81.00;;;;;;5019474;28;20132;-81
2023/09/25 03:36:05;;;;;;;6.45;3.00;;;14.10;81.00;;;;;;5016836;28;20078;-80
2023/09/25 03:38:31;;;;;;;8.05;3.33;;;14.10;81.00;;;;;;5017135;28;20036;-80
2023/09/25 03:40:57;;;;;;;6.47;3.05;;;14.10;80.80;;;;;;5019742;28;20030;-79
2023/09/25 03:43:23;;;;;;;6.88;2.97;;;14.10;80.90;;;;;;5023099;28;20879;-83
2023/09/25 03:45:49;;;;;;;8.30;3.00;;;14.10;81.10;;;;;;5030897;28;20038;-78
2023/09/25 03:48:14;;;;;;;8.52;3.22;;;14.10;81.00;;;;;;5034086;28;20308;-82
2023/09/25 03:50:40;;;;;;;7.25;3.10;;;14.10;81.00;;;;;;5028484;28;20475;-77
2023/09/25 03:53:06;;;;;;;7.00;2.92;;;14.10;81.00;;;;;;5038172;28;20037;-79
2023/09/25 03:55:32;;;;;;;5.32;2.67;;;14.10;81.00;;;;;;5039434;28;20037;-81
2023/09/25 03:57:58;;;;;;;6.75;3.10;;;14.10;81.00;;;;;;5030890;28;20033;-83
2023/09/25 04:00:26;;;;;;;7.20;2.88;;;14.10;80.90;;;;;;5036544;28;20036;-83
2023/09/25 04:02:52;;;;;;;7.85;3.25;;;14.10;81.00;;;;;;5032230;28;20037;-83
2023/09/25 04:05:18;;;;;;;6.68;2.67;;;14.00;81.10;;;;;;5036279;28;20044;-84
2023/09/25 04:07:45;;;;;;;7.65;3.08;;;14.00;81.30;;;;;;5033653;28;20022;-84
2023/09/25 04:10:11;;;;;;;6.05;3.03;;;14.00;81.20;;;;;;5038173;28;20033;-83
2023/09/25 04:12:36;;;;;;;6.47;2.80;;;14.00;81.20;;;;;;5035144;28;20281;-80
2023/09/25 04:15:08;;;;;;;7.55;3.42;;;14.00;81.20;;;;;;5031780;28;20464;-81
2023/09/25 04:17:33;;;;;;;9.75;3.22;;;14.00;81.30;;;;;;5037273;28;20017;-83
2023/09/25 04:19:59;;;;;;;9.30;3.22;;;13.90;81.40;;;;;;5035375;28;20046;-83
2023/09/25 04:22:25;;;;;;;7.78;3.20;;;13.90;81.40;;;;;;5039245;28;20040;-82
2023/09/25 04:24:52;;;;;;;7.78;2.97;;;13.90;81.50;;;;;;5032334;28;20461;-82
2023/09/25 04:27:18;;;;;;;10.90;3.38;;;13.90;81.50;;;;;;5033107;28;20053;-81
2023/09/25 04:29:44;;;;;;;7.15;3.00;;;13.90;81.60;;;;;;5019995;28;20739;-83
2023/09/25 04:32:10;;;;;;;7.10;3.35;;;13.90;81.70;;;;;;5019414;28;20121;-83
2023/09/25 04:34:36;;;;;;;9.05;3.47;;;13.90;81.80;;;;;;5022814;28;20494;-81
2023/09/25 04:37:03;;;;;;;5.35;2.53;;;13.80;81.70;;;;;;5018842;28;20030;-80
2023/09/25 04:39:32;;;;;;;6.18;2.92;;;13.90;81.70;;;;;;5012035;28;20067;-83
2023/09/25 04:41:59;;;;;;;5.68;2.95;;;13.90;81.70;;;;;;5012302;28;20041;-80
2023/09/25 04:44:25;;;;;;;7.40;3.25;;;13.90;81.70;;;;;;5007900;28;20252;-81
2023/09/25 04:46:51;;;;;;;7.75;3.00;;;13.90;81.70;;;;;;5012839;28;20467;-80
2023/09/25 04:49:18;;;;;;;8.98;2.65;;;13.90;81.90;;;;;;5013286;28;20046;-83
2023/09/25 04:51:44;;;;;;;6.63;2.70;;;13.80;82.00;;;;;;5024876;28;20537;-82
2023/09/25 04:54:10;;;;;;;10.57;3.08;;;13.70;82.10;;;;;;5031210;28;20459;-82
2023/09/25 04:56:36;;;;;;;5.72;2.60;;;13.80;82.10;;;;;;5036406;28;20056;-82
2023/09/25 04:59:03;;;;;;;8.30;3.00;;;13.70;82.20;;;;;;5035148;28;20030;-82
2023/09/25 05:01:29;;;;;;;8.02;2.85;;;13.80;82.20;;;;;;5032425;28;20075;-79
2023/09/25 05:03:54;;;;;;;6.28;2.85;;;13.80;82.10;;;;;;5033627;28;20036;-83
2023/09/25 05:06:20;;;;;;;6.05;2.83;;;13.70;82.10;;;;;;5034512;28;20041;-82
2023/09/25 05:08:46;;;;;;;9.40;3.20;;;13.70;82.10;;;;;;5032095;28;20029;-81
2023/09/25 05:11:11;;;;;;;7.93;3.38;;;13.70;82.30;;;;;;5032063;28;20272;-83
2023/09/25 05:13:37;;;;;;;6.85;2.83;;;13.70;82.40;;;;;;5034303;28;20518;-82
2023/09/25 05:16:03;;;;;;;6.35;2.83;;;13.70;82.30;;;;;;5033922;28;20057;-79
2023/09/25 05:18:29;;;;;;;8.07;3.22;;;13.70;82.50;;;;;;5031376;28;20090;-82
2023/09/25 05:20:59;;;;;;;7.88;3.03;;;13.70;82.40;;;;;;5020401;28;20049;-79
2023/09/25 05:23:25;;;;;;;9.57;3.30;;;13.70;82.30;;;;;;5021190;28;20119;-80
2023/09/25 05:25:52;;;;;;;9.10;3.13;;;13.70;82.40;;;;;;5027653;28;20036;-82
2023/09/25 05:28:17;;;;;;;8.50;3.08;;;13.70;82.40;;;;;;5031926;28;20044;-80
2023/09/25 05:30:43;;;;;;;9.18;3.10;;;13.80;82.40;;;;;;5027466;28;20387;-81
2023/09/25 05:33:09;;;;;;;7.40;3.20;;;13.80;82.30;;;;;;5019917;28;20034;-81
2023/09/25 05:35:35;;;;;;;7.85;3.50;;;13.70;82.30;;;;;;5028406;28;20056;-79
2023/09/25 05:38:00;;;;;;;7.38;3.28;;;13.70;82.40;;;;;;5032572;28;20029;-79
2023/09/25 05:40:26;;;;;;;7.25;2.88;;;13.70;82.40;;;;;;5032279;28;20765;-81
2023/09/25 05:42:52;;;;;;;7.53;2.90;;;13.70;82.40;;;;;;5030656;28;20113;-83
2023/09/25 05:45:22;;;;;;;7.28;3.17;;;13.70;82.30;;;;;;5010664;28;20066;-84
2023/09/25 05:47:47;;;;;;;7.80;3.08;;;13.70;82.20;;;;;;5018124;28;20325;-83
2023/09/25 05:50:13;;;;;;;8.98;2.88;;;13.70;82.30;;;;;;5010151;28;20694;-81
2023/09/25 05:52:40;;;;;;;7.13;3.33;;;13.70;82.30;;;;;;5013619;28;20584;-81
2023/09/25 05:55:07;;;;;;;7.32;3.10;;;13.70;82.40;;;;;;5015118;28;20426;-79
2023/09/25 05:57:34;;;;;;;8.68;3.17;;;13.80;82.30;;;;;;5011783;28;20044;-83
2023/09/25 06:00:00;;;;;;;8.20;3.88;;;13.80;82.30;;;;;;5022488;28;20041;-81
2023/09/25 06:02:28;;;;;;;7.20;3.10;;;13.80;82.20;;;;;;5020024;28;20025;-80
2023/09/25 06:04:54;;;;;;;8.75;3.38;;;13.90;82.10;;;;;;5021875;28;20041;-82
2023/09/25 06:07:20;;;;;;;8.25;3.00;;;13.80;82.20;;;;;;5020728;28;20045;-83
2023/09/25 06:09:46;;;;;;;8.32;3.58;;;13.80;82.10;;;;;;5022122;28;20107;-81
2023/09/25 06:12:13;;;;;;;8.07;3.22;;;13.90;82.00;;;;;;5022843;28;20048;-78
2023/09/25 06:14:39;;;;;;;7.40;2.92;;;14.00;81.90;;;;;;5021179;28;20038;-79
2023/09/25 06:17:05;;;;;;;8.07;2.75;;;14.00;81.70;;;;;;5020356;28;20029;-80
2023/09/25 06:19:31;;;;;;;8.35;3.25;;;14.10;81.60;;;;;;5020305;28;20451;-82
2023/09/25 06:21:57;;;;;;;8.30;3.85;;;14.20;81.30;;;;;;5021242;28;20659;-82
2023/09/25 06:24:22;;;;;;;8.38;3.25;;;14.40;80.90;;;;;;5013862;28;20129;-82
2023/09/25 06:26:49;;;;;;;8.20;3.30;;;14.60;80.40;;;;;;5019666;28;20026;-83
2023/09/25 06:29:15;;;;;;;7.57;3.00;;;14.70;79.70;;;;;;5023724;28;20044;-80
2023/09/25 06:31:41;;;;;;;8.98;3.47;;;14.90;78.90;;;;;;5018339;28;20122;-82
2023/09/25 06:34:07;;;;;;;6.47;2.85;;;15.20;78.20;;;;;;5012333;28;20038;-81
2023/09/25 06:36:34;;;;;;;6.85;3.17;;;15.40;77.50;;;;;;5022244;28;20053;-78
2023/09/25 06:39:00;;;;;;;7.38;2.92;;;15.70;77.10;;;;;;5016055;28;20042;-82
2023/09/25 06:41:26;;;;;;;7.72;3.22;;;15.90;76.30;;;;;;5014127;28;20038;-78
2023/09/25 06:43:54;;;;;;;7.63;2.80;;;15.90;75.80;;;;;;5028302;28;20048;-77
2023/09/25 06:46:20;;;;;;;8.18;2.90;;;15.80;76.00;;;;;;5031500;28;20037;-75
2023/09/25 06:48:50;;;;;;;6.95;2.80;;;15.60;76.60;;;;;;5030899;28;20431;-76
2023/09/25 06:51:19;;;;;;;6.97;3.22;;;15.60;76.90;;;;;;5035527;28;20123;-77
2023/09/25 06:53:45;;;;;;;7.13;3.15;;;15.60;76.90;;;;;;5040451;28;20124;-77
2023/09/25 06:56:10;;;;;;;5.60;2.72;;;15.60;76.80;;;;;;5033437;28;20131;-77
2023/09/25 06:58:37;;;;;;;6.22;2.58;;;15.70;77.00;;;;;;5029450;28;20116;-77
2023/09/25 07:01:03;;;;;;;7.05;3.10;;;15.80;76.90;;;;;;5016526;28;20056;-77
2023/09/25 07:03:29;;;;;;;6.55;2.70;;;15.90;76.60;;;;;;5009105;28;20057;-77
2023/09/25 07:05:56;;;;;;;8.82;3.10;;;15.90;76.40;;;;;;5018047;28;20563;-77
2023/09/25 07:08:22;;;;;;;9.30;3.00;;;16.00;76.10;;;;;;5017402;28;20032;-77
2023/09/25 07:10:49;;;;;;;9.95;3.47;;;16.10;76.20;;;;;;5015427;28;20025;-78
2023/09/25 07:13:19;;;;;;;8.93;3.47;;;16.10;76.00;;;;;;5011023;28;20030;-77
2023/09/25 07:15:44;;;;;;;7.85;3.70;;;16.10;75.90;;;;;;5008191;28;20025;-77
2023/09/25 07:18:11;;;;;;;8.00;3.78;;;16.10;75.60;;;;;;5017854;28;20033;-77
2023/09/25 07:20:36;;;;;;;7.82;3.55;;;16.00;75.80;;;;;;5017798;28;20053;-77
2023/09/25 07:23:02;;;;;;;10.48;4.43;;;16.00;76.10;;;;;;5018629;28;20077;-77
2023/09/25 07:25:29;;;;;;;7.85;3.95;;;15.90;76.70;;;;;;5034712;28;20049;-77
2023/09/25 07:27:55;;;;;;;10.30;4.25;;;15.90;77.10;;;;;;5020904;28;20375;-75
2023/09/25 07:30:21;;;;;;;8.65;4.03;;;15.90;76.80;;;;;;5017797;28;20076;-76
2023/09/25 07:32:48;;;;;;;8.77;3.50;;;15.80;77.10;;;;;;5031447;28;20049;-77
2023/09/25 07:35:15;;;;;;;10.13;4.03;;;15.80;77.30;;;;;;5032043;28;20377;-76
2023/09/25 07:37:42;;;;;;;8.25;3.28;;;15.80;77.50;;;;;;5030360;28;20024;-76
2023/09/25 07:40:13;;;;;;;8.10;3.50;;;15.80;77.30;;;;;;5014950;28;20033;-76
2023/09/25 07:42:40;;;;;;;9.60;3.80;;;15.80;77.20;;;;;;5016079;28;20043;-76
2023/09/25 07:45:11;;;;;;;7.65;3.47;;;15.80;77.00;;;;;;5017763;28;20057;-76
2023/09/25 07:47:41;;;;;;;9.95;3.33;;;15.90;77.10;;;;;;5014905;28;20403;-78
2023/09/25 07:50:10;;;;;;;8.50;3.60;;;15.90;76.70;;;;;;5011171;28;20534;-78
2023/09/25 07:52:40;;;;;;;8.32;3.08;;;16.10;76.90;;;;;;5026540;28;21582;-79
2023/09/25 07:55:08;;;;;;;10.75;3.63;;;16.10;76.90;;;;;;5012347;28;20045;-79
2023/09/25 07:57:42;;;;;;;8.30;3.90;;;16.30;76.60;;;;;;5016448;28;20061;-78
2023/09/25 08:02:49;;;;;;;8.38;3.13;;;16.30;76.30;;;;;;5017301;28;20033;-77
2023/09/25 08:05:18;;;;;;;9.60;3.75;;;16.40;76.70;;;;;;5021126;28;20120;-76
2023/09/25 08:07:50;;;;;;;8.55;3.70;;;16.40;76.70;;;;;;5020316;28;20068;-76
2023/09/25 08:10:17;;;;;;;7.40;3.30;;;16.40;77.00;;;;;;5012843;28;20083;-76
2023/09/25 08:12:44;;;;;;;9.20;3.38;;;16.50;76.90;;;;;;5026337;28;20032;-76
2023/09/25 08:15:10;;;;;;;6.97;3.33;;;16.60;76.70;;;;;;5017552;28;20048;-75
2023/09/25 08:17:37;;;;;;;7.75;3.08;;;16.70;76.60;;;;;;5019756;28;20095;-74
2023/09/25 08:20:26;;;;;;;6.57;3.40;;;16.80;76.20;;;;;;5018962;28;20033;-76
2023/09/25 08:22:51;;;;;;;8.57;3.67;;;17.00;76.10;;;;;;5018651;28;20030;-74
2023/09/25 08:25:17;;;;;;;8.77;3.78;;;17.20;75.80;;;;;;5020560;28;20026;-75
2023/09/25 08:27:44;;;;;;;8.90;3.42;;;17.50;75.30;;;;;;5020703;28;20029;-75
2023/09/25 08:30:11;;;;;;;9.18;4.25;;;17.60;74.10;;;;;;5016617;28;20022;-74
2023/09/25 08:32:38;;;;;;;7.28;3.78;;;17.60;74.00;;;;;;5018400;28;21460;-76
2023/09/25 08:35:04;;;;;;;9.98;3.85;;;17.80;73.40;;;;;;5021684;28;20103;-77
2023/09/25 08:37:30;;;;;;;7.47;3.83;;;17.90;72.70;;;;;;5022783;28;20160;-74
2023/09/25 08:39:56;;;;;;;7.95;3.38;;;18.20;73.10;;;;;;5017538;28;20097;-77
2023/09/25 08:42:25;;;;;;;8.35;3.70;;;18.40;73.10;;;;;;5010261;28;20081;-75
2023/09/25 08:44:52;;;;;;;8.40;3.40;;;18.50;72.70;;;;;;5011351;28;20061;-75
2023/09/25 08:47:22;;;;;;;12.10;3.97;;;18.40;71.30;;;;;;5012791;28;20022;-76
2023/09/25 08:49:52;;;;;;;7.63;3.13;;;18.60;71.80;;;;;;5014631;28;20025;-75
2023/09/25 08:52:22;;;;;;;7.75;3.22;;;18.80;71.30;;;;;;5038254;28;20501;-77
2023/09/25 08:54:49;;;;;;;9.38;3.65;;;18.80;71.00;;;;;;5022669;28;20021;-78
2023/09/25 08:57:16;;;;;;;9.32;3.45;;;18.80;70.70;;;;;;5020296;28;20075;-76
2023/09/25 08:59:46;;;;;;;7.10;2.47;;;18.70;70.40;;;;;;5018143;28;20108;-77
2023/09/25 09:02:13;;;;;;;7.47;3.15;;;18.70;70.80;;;;;;5007988;28;20041;-75
2023/09/25 09:04:40;;;;;;;6.47;2.80;;;18.60;70.80;;;;;;5009679;28;20041;-77
2023/09/25 09:07:10;;;;;;;7.82;2.90;;;18.60;71.60;;;;;;5006261;28;20025;-75
2023/09/25 09:09:36;;;;;;;8.48;3.17;;;18.80;70.80;;;;;;5014034;28;20048;-76
2023/09/25 09:12:03;;;;;;;7.60;3.10;;;18.80;71.60;;;;;;5010929;28;20037;-77
2023/09/25 09:14:34;;;;;;;7.78;2.92;;;18.80;70.90;;;;;;5010264;28;20033;-76
2023/09/25 09:17:04;;;;;;;5.95;3.08;;;18.90;70.80;;;;;;5012864;28;20490;-76
2023/09/25 09:19:52;;;;;;;10.38;3.33;;;19.00;71.00;;;;;;5016923;28;20164;-77
2023/09/25 09:22:19;;;;;;;9.02;3.38;;;19.10;70.90;;;;;;5016062;28;20022;-76
2023/09/25 09:24:47;;;;;;;6.65;3.10;;;19.00;70.00;;;;;;5015902;28;20043;-77
2023/09/25 09:27:19;;;;;;;8.75;3.15;;;19.00;70.40;;;;;;5033293;28;20789;-78
2023/09/25 09:29:49;;;;;;;8.13;2.95;;;19.00;70.00;;;;;;5016071;28;20108;-78
2023/09/25 09:32:15;;;;;;;9.95;3.10;;;19.00;70.30;;;;;;5012608;28;20120;-76
2023/09/25 09:34:41;;;;;;;8.55;3.92;;;19.10;70.40;;;;;;5022392;28;20036;-77
2023/09/25 09:37:12;;;;;;;11.13;6.25;;;19.30;69.80;;;;;;5013941;28;20029;-77
2023/09/25 09:39:40;;;;;;;9.20;4.28;;;19.40;70.30;;;;;;5007768;28;20037;-77
2023/09/25 09:42:08;;;;;;;5.82;2.90;;;19.40;69.60;;;;;;4999574;28;20110;-79
2023/09/25 09:44:35;;;;;;;7.63;3.55;;;19.40;69.60;;;;;;4999749;28;20096;-75
2023/09/25 09:47:07;;;;;;;9.60;2.95;;;19.60;70.40;;;;;;4997889;28;20519;-78
2023/09/25 09:49:41;;;;;;;7.93;3.40;;;19.80;69.50;;;;;;4992099;28;20336;-75
2023/09/25 09:52:08;;;;;;;;;;;20.00;69.30;;;;;;5020904;28;20079;-78
2023/09/25 09:54:41;;;;;;;7.38;2.90;;;20.10;69.00;;;;;;5013601;28;19919;-78
2023/09/25 09:57:12;;;;;;;7.75;3.10;;;20.10;68.60;;;;;;5039594;28;20090;-77
2023/09/25 09:59:37;;;;;;;8.02;3.63;;;20.00;68.40;;;;;;5030984;28;20044;-76
2023/09/25 10:02:04;;;;;;;8.57;3.50;;;19.90;68.40;;;;;;5002016;28;20025;-76
2023/09/25 10:04:30;;;;;;;10.38;4.35;;;19.90;68.90;;;;;;5002998;28;20415;-76
2023/09/25 10:07:04;;;;;;;10.30;4.18;;;20.00;68.80;;;;;;5009649;28;20040;-76
2023/09/25 10:09:31;;;;;;;10.13;3.83;;;20.20;68.60;;;;;;4997124;28;20065;-75
2023/09/25 10:11:58;;;;;;;8.23;3.92;;;20.30;68.30;;;;;;5018630;28;20021;-76
2023/09/25 10:14:26;;;;;;;8.77;4.00;;;20.50;68.10;;;;;;5020276;28;20135;-77
2023/09/25 10:16:54;;;;;;;8.07;3.90;;;20.60;67.90;;;;;;5021452;28;20025;-78
2023/09/25 10:19:20;;;;;;;7.30;3.55;;;20.50;68.40;;;;;;5018101;28;20050;-77
2023/09/25 10:22:05;;;;;;;12.50;5.55;;;20.60;68.20;;;;;;5019939;28;20340;-77
2023/09/25 10:24:31;;;;;;;7.20;4.10;;;20.70;68.00;;;;;;5031898;28;20255;-78
2023/09/25 10:26:56;;;;;;;12.20;6.63;;;20.80;68.30;;;;;;5033366;28;20021;-77
2023/09/25 10:29:22;;;;;;;9.02;4.53;;;20.80;68.30;;;;;;5038151;28;20033;-77
2023/09/25 10:31:48;;;;;;;7.10;3.60;;;21.00;68.20;;;;;;5042214;28;20024;-77
2023/09/25 10:34:14;;;;;;;7.13;3.67;;;21.10;68.20;;;;;;5021569;28;20404;-76
2023/09/25 10:36:42;;;;;;;7.40;3.10;;;21.10;68.20;;;;;;5017427;28;20498;-75
2023/09/25 10:39:09;;;;;;;7.93;3.30;;;21.10;68.00;;;;;;5015013;28;20129;-77
2023/09/25 10:41:37;;;;;;;8.65;3.35;;;21.10;68.00;;;;;;5007640;28;20036;-80
2023/09/25 10:44:06;;;;;;;8.88;3.10;;;21.10;67.60;;;;;;5008479;28;20037;-80
2023/09/25 10:46:31;;;;;;;8.63;3.45;;;21.20;67.70;;;;;;5005890;28;20038;-77
2023/09/25 10:48:58;;;;;;;7.20;3.95;;;21.10;67.60;;;;;;5008257;28;20178;-75
2023/09/25 10:51:23;;;;;;;13.25;8.00;;;21.10;67.50;;;;;;5009007;28;20129;-74
2023/09/25 10:53:49;;;;;;;15.07;7.75;;;21.10;68.20;;;;;;5009417;28;20046;-75
2023/09/25 10:56:16;;;;;;;9.48;4.90;;;21.20;67.50;;;;;;5004763;28;20061;-77
2023/09/25 10:58:47;;;;;;;11.13;4.50;;;21.20;67.30;;;;;;5002448;28;20034;-75
2023/09/25 11:01:14;;;;;;;6.55;3.20;;;21.10;67.80;;;;;;5008440;28;20103;-74
2023/09/25 11:03:41;;;;;;;8.38;3.65;;;21.10;68.70;;;;;;5008501;28;20043;-76
2023/09/25 11:06:07;;;;;;;6.53;3.63;;;21.10;69.20;;;;;;5010347;28;20155;-77
2023/09/25 11:08:34;;;;;;;7.88;3.65;;;21.10;68.90;;;;;;5010656;28;20231;-75
2023/09/25 11:11:01;;;;;;;6.80;3.20;;;21.20;68.70;;;;;;5011369;28;20266;-76
2023/09/25 11:13:27;;;;;;;9.68;3.40;;;21.20;69.00;;;;;;5010149;28;20041;-74
2023/09/25 11:15:54;;;;;;;9.25;3.50;;;21.30;69.70;;;;;;5013627;28;20040;-77
2023/09/25 11:18:20;;;;;;;6.75;3.55;;;21.20;68.60;;;;;;5012539;28;20412;-76
2023/09/25 11:20:45;;;;;;;8.43;3.60;;;21.20;69.30;;;;;;5009472;28;20137;-75
2023/09/25 11:23:14;;;;;;;5.78;3.22;;;21.30;69.50;;;;;;5015573;28;20076;-74
2023/09/25 11:25:45;;;;;;;7.47;3.22;;;21.30;68.60;;;;;;5026507;28;20456;-75
2023/09/25 11:28:16;;;;;;;7.25;3.10;;;21.40;68.80;;;;;;5031956;28;20033;-77
2023/09/25 11:30:46;;;;;;;8.27;3.70;;;21.40;69.00;;;;;;5029445;28;20123;-75
2023/09/25 11:33:15;;;;;;;8.32;3.50;;;21.30;69.00;;;;;;5029847;28;20477;-77
2023/09/25 11:35:41;;;;;;;6.18;3.50;;;21.20;69.30;;;;;;5025103;28;20120;-76
2023/09/25 11:38:18;;;;;;;7.65;3.50;;;21.20;70.20;;;;;;5026453;28;20056;-75
2023/09/25 11:40:45;;;;;;;9.35;3.70;;;21.10;69.80;;;;;;5031538;28;20036;-75
2023/09/25 11:43:12;;;;;;;7.32;3.95;;;21.10;70.10;;;;;;5036565;28;20490;-74
2023/09/25 11:45:40;;;;;;;7.38;3.28;;;21.10;71.00;;;;;;5036060;28;20538;-74
2023/09/25 11:48:05;;;;;;;7.15;3.28;;;21.10;71.10;;;;;;5034072;28;20558;-75
2023/09/25 11:50:31;;;;;;;9.50;3.60;;;21.10;71.20;;;;;;5035646;28;20037;-75
2023/09/25 11:52:57;;;;;;;8.98;3.47;;;21.00;71.40;;;;;;5032910;28;20126;-74
2023/09/25 11:55:23;;;;;;;7.30;3.70;;;21.00;71.00;;;;;;5038973;28;20037;-72
2023/09/25 11:57:49;;;;;;;9.38;3.40;;;21.00;71.40;;;;;;5037722;28;20029;-74
2023/09/25 12:00:18;;;;;;;8.50;3.58;;;21.00;71.30;;;;;;5053379;28;20159;-76
2023/09/25 12:02:46;;;;;;;8.48;3.78;;;21.00;71.70;;;;;;5037715;28;20025;-74
2023/09/25 12:05:12;;;;;;;8.00;3.65;;;21.00;71.20;;;;;;5038492;28;20113;-75
2023/09/25 12:07:38;;;;;;;9.50;3.90;;;21.00;72.20;;;;;;5033477;28;20021;-76
2023/09/25 12:10:05;;;;;;;6.60;3.35;;;21.00;71.70;;;;;;5032704;28;20036;-76
2023/09/25 12:12:35;;;;;;;9.52;3.80;;;21.00;71.10;;;;;;5038408;28;20025;-74
2023/09/25 12:15:03;;;;;;;9.75;3.97;;;21.00;71.70;;;;;;5034189;28;20048;-76
2023/09/25 12:17:30;;;;;;;8.02;3.45;;;21.00;71.90;;;;;;5039140;28;20038;-74
2023/09/25 12:20:14;;;;;;;8.50;4.25;;;21.10;72.60;;;;;;5010672;28;20508;-74
2023/09/25 12:22:42;;;;;;;10.50;4.70;;;21.10;72.40;;;;;;5012286;28;20600;-76
2023/09/25 12:25:11;;;;;;;7.68;3.60;;;21.10;72.90;;;;;;5013742;28;20943;-76
2023/09/25 12:27:39;;;;;;;8.85;3.60;;;21.30;73.20;;;;;;5016734;28;20022;-78
2023/09/25 12:30:07;;;;;;;8.07;3.72;;;21.30;72.20;;;;;;5016331;28;20034;-76
2023/09/25 12:32:34;;;;;;;9.80;3.97;;;21.30;71.90;;;;;;5018093;28;20041;-74
2023/09/25 12:35:00;;;;;;;9.20;4.03;;;21.60;71.40;;;;;;5036377;28;20502;-77
2023/09/25 12:37:26;;;;;;;8.95;3.50;;;21.80;71.10;;;;;;5034494;28;20090;-75
2023/09/25 12:39:52;;;;;;;8.68;3.45;;;22.00;70.50;;;;;;5032991;28;20041;-75
2023/09/25 12:42:19;;;;;;;8.75;3.72;;;22.10;69.80;;;;;;5034377;28;20538;-75
2023/09/25 12:44:46;;;;;;;9.32;3.75;;;22.10;69.70;;;;;;5038379;28;20053;-75
2023/09/25 12:47:13;;;;;;;8.48;3.72;;;22.10;69.60;;;;;;5038405;28;20638;-74